sensor_id;sensor_type;location;lat;lon;timestamp;pressure;altitude;pressure_sealevel;temperature;humidity
16793;BME280;8513;42.662;23.350;2024-03-02T00:02:10;94344.19;;;9.79;63.96
16793;BME280;8513;42.662;23.350;2024-03-02T00:04:36;94339.41;;;9.83;63.93
16793;BME280;8513;42.662;23.350;2024-03-02T00:07:02;94341.38;;;9.81;63.78
16793;BME280;8513;42.662;23.350;2024-03-02T00:09:29;94336.63;;;9.84;63.72
16793;BME280;8513;42.662;23.350;2024-03-02T00:11:54;94336.31;;;9.87;63.70
16793;BME280;8513;42.662;23.350;2024-03-02T00:14:20;94332.19;;;9.85;63.83
16793;BME280;8513;42.662;23.350;2024-03-02T00:16:46;94345.13;;;9.70;64.25
16793;BME280;8513;42.662;23.350;2024-03-02T00:19:11;94341.69;;;9.78;64.72
16793;BME280;8513;42.662;23.350;2024-03-02T00:21:37;94329.25;;;9.80;64.12
16793;BME280;8513;42.662;23.350;2024-03-02T00:24:17;94331.19;;;9.78;64.28
16793;BME280;8513;42.662;23.350;2024-03-02T00:26:45;94330.88;;;9.81;64.02
16793;BME280;8513;42.662;23.350;2024-03-02T00:29:11;94328.25;;;9.81;64.17
16793;BME280;8513;42.662;23.350;2024-03-02T00:31:40;94327.09;;;9.75;64.10
16793;BME280;8513;42.662;23.350;2024-03-02T00:34:05;94309.56;;;9.84;63.45
16793;BME280;8513;42.662;23.350;2024-03-02T00:36:31;94311.19;;;9.77;64.08
16793;BME280;8513;42.662;23.350;2024-03-02T00:38:56;94313.81;;;9.85;63.83
16793;BME280;8513;42.662;23.350;2024-03-02T00:41:28;94313.34;;;9.89;63.79
16793;BME280;8513;42.662;23.350;2024-03-02T00:44:09;94305.94;;;9.85;63.65
16793;BME280;8513;42.662;23.350;2024-03-02T00:46:37;94313.97;;;9.83;63.86
16793;BME280;8513;42.662;23.350;2024-03-02T00:49:21;94312.19;;;9.84;63.80
16793;BME280;8513;42.662;23.350;2024-03-02T00:51:47;94299.88;;;9.84;63.62
16793;BME280;8513;42.662;23.350;2024-03-02T00:54:20;94308.41;;;9.86;63.48
16793;BME280;8513;42.662;23.350;2024-03-02T00:56:47;94300.03;;;9.58;64.64
16793;BME280;8513;42.662;23.350;2024-03-02T00:59:12;94306.94;;;9.76;63.55
16793;BME280;8513;42.662;23.350;2024-03-02T01:01:38;94311.19;;;9.77;63.75
16793;BME280;8513;42.662;23.350;2024-03-02T01:04:03;94312.34;;;9.82;63.60
16793;BME280;8513;42.662;23.350;2024-03-02T01:06:29;94306.75;;;9.85;63.70
16793;BME280;8513;42.662;23.350;2024-03-02T01:08:55;94318.06;;;9.94;63.70
16793;BME280;8513;42.662;23.350;2024-03-02T01:11:20;94316.75;;;9.98;63.38
16793;BME280;8513;42.662;23.350;2024-03-02T01:13:48;94319.25;;;10.00;63.32
16793;BME280;8513;42.662;23.350;2024-03-02T01:16:14;94314.47;;;10.03;63.31
16793;BME280;8513;42.662;23.350;2024-03-02T01:18:41;94311.84;;;9.95;63.45
16793;BME280;8513;42.662;23.350;2024-03-02T01:21:06;94300.84;;;10.00;63.71
16793;BME280;8513;42.662;23.350;2024-03-02T01:23:32;94298.22;;;10.00;63.83
16793;BME280;8513;42.662;23.350;2024-03-02T01:25:57;94297.56;;;10.06;63.81
16793;BME280;8513;42.662;23.350;2024-03-02T01:28:22;94293.94;;;9.99;64.56
16793;BME280;8513;42.662;23.350;2024-03-02T01:30:48;94285.59;;;9.95;64.87
16793;BME280;8513;42.662;23.350;2024-03-02T01:33:14;94285.41;;;9.97;65.33
16793;BME280;8513;42.662;23.350;2024-03-02T01:35:39;94287.06;;;9.98;64.83
16793;BME280;8513;42.662;23.350;2024-03-02T01:38:05;94281.28;;;10.02;64.98
16793;BME280;8513;42.662;23.350;2024-03-02T01:40:34;94286.53;;;10.02;64.98
16793;BME280;8513;42.662;23.350;2024-03-02T01:43:00;94282.63;;;9.98;64.84
16793;BME280;8513;42.662;23.350;2024-03-02T01:45:26;94286.72;;;10.01;65.48
16793;BME280;8513;42.662;23.350;2024-03-02T01:47:52;94288.53;;;10.08;65.12
16793;BME280;8513;42.662;23.350;2024-03-02T01:50:33;94283.91;;;10.02;64.79
16793;BME280;8513;42.662;23.350;2024-03-02T01:52:59;94283.28;;;10.00;64.77
16793;BME280;8513;42.662;23.350;2024-03-02T01:55:25;94277.53;;;9.97;64.75
16793;BME280;8513;42.662;23.350;2024-03-02T01:57:51;94281.47;;;9.92;65.07
16793;BME280;8513;42.662;23.350;2024-03-02T02:00:18;94281.00;;;9.97;64.90
16793;BME280;8513;42.662;23.350;2024-03-02T02:02:44;94287.53;;;10.09;64.94
16793;BME280;8513;42.662;23.350;2024-03-02T02:05:10;94273.91;;;10.06;65.07
16793;BME280;8513;42.662;23.350;2024-03-02T02:07:35;94290.34;;;10.08;65.18
16793;BME280;8513;42.662;23.350;2024-03-02T02:10:01;94278.69;;;9.94;65.29
16793;BME280;8513;42.662;23.350;2024-03-02T02:12:26;94285.09;;;10.00;65.68
16793;BME280;8513;42.662;23.350;2024-03-02T02:14:52;94276.88;;;10.03;65.99
16793;BME280;8513;42.662;23.350;2024-03-02T02:17:19;94276.38;;;9.99;66.37
16793;BME280;8513;42.662;23.350;2024-03-02T02:19:44;94264.41;;;9.88;66.53
16793;BME280;8513;42.662;23.350;2024-03-02T02:22:10;94264.75;;;9.85;66.76
16793;BME280;8513;42.662;23.350;2024-03-02T02:24:39;94267.69;;;9.82;66.65
16793;BME280;8513;42.662;23.350;2024-03-02T02:27:05;94261.44;;;9.83;66.67
16793;BME280;8513;42.662;23.350;2024-03-02T02:29:30;94273.75;;;9.83;66.38
16793;BME280;8513;42.662;23.350;2024-03-02T02:31:56;94265.88;;;9.83;66.42
16793;BME280;8513;42.662;23.350;2024-03-02T02:34:21;94262.94;;;9.78;66.70
16793;BME280;8513;42.662;23.350;2024-03-02T02:36:47;94271.47;;;9.80;66.85
16793;BME280;8513;42.662;23.350;2024-03-02T02:39:15;94271.81;;;9.77;66.81
16793;BME280;8513;42.662;23.350;2024-03-02T02:41:42;94269.00;;;9.70;66.91
16793;BME280;8513;42.662;23.350;2024-03-02T02:44:08;94266.56;;;9.68;67.23
16793;BME280;8513;42.662;23.350;2024-03-02T02:46:33;94265.09;;;9.66;66.99
16793;BME280;8513;42.662;23.350;2024-03-02T02:48:58;94268.19;;;9.69;67.21
16793;BME280;8513;42.662;23.350;2024-03-02T02:51:24;94281.00;;;9.72;66.96
16793;BME280;8513;42.662;23.350;2024-03-02T02:53:51;94282.66;;;9.74;67.03
16793;BME280;8513;42.662;23.350;2024-03-02T02:56:16;94268.84;;;9.71;66.99
16793;BME280;8513;42.662;23.350;2024-03-02T02:58:42;94268.19;;;9.78;66.86
16793;BME280;8513;42.662;23.350;2024-03-02T03:01:07;94280.00;;;9.82;66.77
16793;BME280;8513;42.662;23.350;2024-03-02T03:03:33;94276.91;;;9.86;66.48
16793;BME280;8513;42.662;23.350;2024-03-02T03:05:59;94275.75;;;9.72;66.78
16793;BME280;8513;42.662;23.350;2024-03-02T03:08:24;94273.78;;;9.75;67.45
16793;BME280;8513;42.662;23.350;2024-03-02T03:10:50;94276.59;;;9.73;67.12
16793;BME280;8513;42.662;23.350;2024-03-02T03:13:15;94283.78;;;9.71;67.88
16793;BME280;8513;42.662;23.350;2024-03-02T03:15:41;94270.81;;;9.78;67.34
16793;BME280;8513;42.662;23.350;2024-03-02T03:18:06;94276.72;;;9.80;67.44
16793;BME280;8513;42.662;23.350;2024-03-02T03:20:33;94272.16;;;9.74;67.92
16793;BME280;8513;42.662;23.350;2024-03-02T03:22:59;94266.88;;;9.82;67.83
16793;BME280;8513;42.662;23.350;2024-03-02T03:25:25;94275.44;;;9.76;68.11
16793;BME280;8513;42.662;23.350;2024-03-02T03:27:50;94272.63;;;9.69;67.98
16793;BME280;8513;42.662;23.350;2024-03-02T03:30:17;94268.72;;;9.73;68.03
16793;BME280;8513;42.662;23.350;2024-03-02T03:32:43;94272.47;;;9.70;68.08
16793;BME280;8513;42.662;23.350;2024-03-02T03:35:09;94278.53;;;9.71;68.23
16793;BME280;8513;42.662;23.350;2024-03-02T03:37:34;94269.53;;;9.65;68.57
16793;BME280;8513;42.662;23.350;2024-03-02T03:40:00;94275.75;;;9.64;68.38
16793;BME280;8513;42.662;23.350;2024-03-02T03:42:26;94275.59;;;9.66;68.50
16793;BME280;8513;42.662;23.350;2024-03-02T03:44:52;94276.25;;;9.68;68.96
16793;BME280;8513;42.662;23.350;2024-03-02T03:47:17;94277.53;;;9.64;68.33
16793;BME280;8513;42.662;23.350;2024-03-02T03:49:43;94273.63;;;9.68;68.63
16793;BME280;8513;42.662;23.350;2024-03-02T03:52:08;94273.09;;;9.72;68.25
16793;BME280;8513;42.662;23.350;2024-03-02T03:54:33;94272.78;;;9.67;68.28
16793;BME280;8513;42.662;23.350;2024-03-02T03:56:59;94277.88;;;9.69;68.28
16793;BME280;8513;42.662;23.350;2024-03-02T03:59:24;94277.22;;;9.67;68.51
16793;BME280;8513;42.662;23.350;2024-03-02T04:01:50;94279.50;;;9.70;68.41
16793;BME280;8513;42.662;23.350;2024-03-02T04:04:15;94268.84;;;9.71;68.26
16793;BME280;8513;42.662;23.350;2024-03-02T04:06:40;94281.84;;;9.73;68.31
16793;BME280;8513;42.662;23.350;2024-03-02T04:09:06;94271.97;;;9.75;68.58
16793;BME280;8513;42.662;23.350;2024-03-02T04:11:32;94279.69;;;9.68;68.44
16793;BME280;8513;42.662;23.350;2024-03-02T04:13:57;94276.41;;;9.66;68.78
16793;BME280;8513;42.662;23.350;2024-03-02T04:16:23;94275.59;;;9.66;69.06
16793;BME280;8513;42.662;23.350;2024-03-02T04:18:48;94270.81;;;9.69;68.98
16793;BME280;8513;42.662;23.350;2024-03-02T04:21:13;94273.44;;;9.69;68.98
16793;BME280;8513;42.662;23.350;2024-03-02T04:23:39;94268.19;;;9.53;68.72
16793;BME280;8513;42.662;23.350;2024-03-02T04:26:04;94269.19;;;9.44;69.44
16793;BME280;8513;42.662;23.350;2024-03-02T04:28:30;94284.94;;;9.68;69.35
16793;BME280;8513;42.662;23.350;2024-03-02T04:30:55;94281.50;;;9.68;69.10
16793;BME280;8513;42.662;23.350;2024-03-02T04:33:20;94281.66;;;9.66;68.86
16793;BME280;8513;42.662;23.350;2024-03-02T04:35:46;94281.84;;;9.73;68.79
16793;BME280;8513;42.662;23.350;2024-03-02T04:38:11;94288.53;;;9.51;68.69
16793;BME280;8513;42.662;23.350;2024-03-02T04:40:37;94279.19;;;9.48;68.90
16793;BME280;8513;42.662;23.350;2024-03-02T04:43:02;94283.78;;;9.38;69.82
16793;BME280;8513;42.662;23.350;2024-03-02T04:45:28;94274.78;;;9.49;69.71
16793;BME280;8513;42.662;23.350;2024-03-02T04:47:54;94279.84;;;9.59;69.05
16793;BME280;8513;42.662;23.350;2024-03-02T04:50:19;94281.00;;;9.64;69.43
16793;BME280;8513;42.662;23.350;2024-03-02T04:52:45;94287.22;;;9.63;70.06
16793;BME280;8513;42.662;23.350;2024-03-02T04:55:10;94288.06;;;9.64;69.89
16793;BME280;8513;42.662;23.350;2024-03-02T04:57:41;94290.66;;;9.56;71.11
16793;BME280;8513;42.662;23.350;2024-03-02T05:00:07;94289.53;;;9.58;71.07
16793;BME280;8513;42.662;23.350;2024-03-02T05:02:34;94287.06;;;9.65;71.59
16793;BME280;8513;42.662;23.350;2024-03-02T05:04:59;94290.34;;;9.67;72.49
16793;BME280;8513;42.662;23.350;2024-03-02T05:07:25;94288.38;;;9.61;71.84
16793;BME280;8513;42.662;23.350;2024-03-02T05:09:50;94306.56;;;9.54;72.39
16793;BME280;8513;42.662;23.350;2024-03-02T05:12:16;94300.03;;;9.50;72.60
16793;BME280;8513;42.662;23.350;2024-03-02T05:14:59;94295.91;;;9.56;72.93
16793;BME280;8513;42.662;23.350;2024-03-02T05:17:25;94305.44;;;9.65;72.32
16793;BME280;8513;42.662;23.350;2024-03-02T05:19:50;94303.66;;;9.65;72.50
16793;BME280;8513;42.662;23.350;2024-03-02T05:22:16;94303.13;;;9.70;73.13
16793;BME280;8513;42.662;23.350;2024-03-02T05:24:42;94305.59;;;9.63;73.89
16793;BME280;8513;42.662;23.350;2024-03-02T05:27:07;94317.09;;;9.70;73.66
16793;BME280;8513;42.662;23.350;2024-03-02T05:29:32;94310.88;;;9.71;73.78
16793;BME280;8513;42.662;23.350;2024-03-02T05:31:58;94319.41;;;9.74;73.60
16793;BME280;8513;42.662;23.350;2024-03-02T05:34:23;94312.66;;;9.71;72.97
16793;BME280;8513;42.662;23.350;2024-03-02T05:36:49;94313.81;;;9.68;73.32
16793;BME280;8513;42.662;23.350;2024-03-02T05:39:14;94324.66;;;9.65;73.29
16793;BME280;8513;42.662;23.350;2024-03-02T05:41:40;94328.56;;;9.53;73.46
16793;BME280;8513;42.662;23.350;2024-03-02T05:44:06;94336.28;;;9.46;73.15
16793;BME280;8513;42.662;23.350;2024-03-02T05:46:32;94340.38;;;9.57;73.27
16793;BME280;8513;42.662;23.350;2024-03-02T05:49:01;94336.28;;;9.55;74.23
16793;BME280;8513;42.662;23.350;2024-03-02T05:51:26;94338.41;;;9.59;74.95
16793;BME280;8513;42.662;23.350;2024-03-02T05:53:52;94331.69;;;9.65;74.94
16793;BME280;8513;42.662;23.350;2024-03-02T05:56:17;94342.69;;;9.68;75.35
16793;BME280;8513;42.662;23.350;2024-03-02T05:58:42;94339.06;;;9.53;74.61
16793;BME280;8513;42.662;23.350;2024-03-02T06:01:34;94341.81;;;9.43;74.90
16793;BME280;8513;42.662;23.350;2024-03-02T06:03:59;94342.31;;;9.39;75.22
16793;BME280;8513;42.662;23.350;2024-03-02T06:06:27;94339.53;;;9.48;75.15
16793;BME280;8513;42.662;23.350;2024-03-02T06:08:53;94346.94;;;9.53;74.91
16793;BME280;8513;42.662;23.350;2024-03-02T06:11:19;94342.34;;;9.55;74.69
16793;BME280;8513;42.662;23.350;2024-03-02T06:13:44;94341.53;;;9.55;74.98
16793;BME280;8513;42.662;23.350;2024-03-02T06:16:10;94344.16;;;9.63;74.82
16793;BME280;8513;42.662;23.350;2024-03-02T06:18:35;94344.31;;;9.53;74.99
16793;BME280;8513;42.662;23.350;2024-03-02T06:21:01;94343.00;;;9.57;74.89
16793;BME280;8513;42.662;23.350;2024-03-02T06:23:27;94342.69;;;9.68;74.35
16793;BME280;8513;42.662;23.350;2024-03-02T06:25:52;94343.31;;;9.54;74.58
16793;BME280;8513;42.662;23.350;2024-03-02T06:28:18;94350.88;;;9.57;74.59
16793;BME280;8513;42.662;23.350;2024-03-02T06:30:43;94356.97;;;9.66;73.89
16793;BME280;8513;42.662;23.350;2024-03-02T06:33:09;94354.47;;;9.64;73.88
16793;BME280;8513;42.662;23.350;2024-03-02T06:35:35;94351.84;;;9.56;73.93
16793;BME280;8513;42.662;23.350;2024-03-02T06:38:01;94357.44;;;9.61;73.86
16793;BME280;8513;42.662;23.350;2024-03-02T06:40:26;94356.94;;;9.58;73.93
16793;BME280;8513;42.662;23.350;2024-03-02T06:42:52;94349.41;;;9.63;73.22
16793;BME280;8513;42.662;23.350;2024-03-02T06:45:17;94361.22;;;9.59;72.85
16793;BME280;8513;42.662;23.350;2024-03-02T06:47:43;94352.34;;;9.52;73.55
16793;BME280;8513;42.662;23.350;2024-03-02T06:50:08;94365.63;;;9.50;73.96
16793;BME280;8513;42.662;23.350;2024-03-02T06:52:35;94362.19;;;9.58;73.63
16793;BME280;8513;42.662;23.350;2024-03-02T06:55:00;94357.28;;;9.55;73.54
16793;BME280;8513;42.662;23.350;2024-03-02T06:57:25;94365.31;;;9.53;74.17
16793;BME280;8513;42.662;23.350;2024-03-02T06:59:51;94358.69;;;9.41;73.98
16793;BME280;8513;42.662;23.350;2024-03-02T07:02:19;94364.28;;;9.46;74.03
16793;BME280;8513;42.662;23.350;2024-03-02T07:04:45;94368.25;;;9.50;74.16
16793;BME280;8513;42.662;23.350;2024-03-02T07:07:10;94361.69;;;9.54;74.17
16793;BME280;8513;42.662;23.350;2024-03-02T07:09:36;94358.41;;;9.44;74.21
16793;BME280;8513;42.662;23.350;2024-03-02T07:12:01;94358.75;;;9.57;73.80
16793;BME280;8513;42.662;23.350;2024-03-02T07:14:27;94363.31;;;9.39;74.75
16793;BME280;8513;42.662;23.350;2024-03-02T07:17:12;94372.16;;;9.46;74.46
16793;BME280;8513;42.662;23.350;2024-03-02T07:19:38;94371.69;;;9.42;74.21
16793;BME280;8513;42.662;23.350;2024-03-02T07:22:07;94367.75;;;9.46;73.98
16793;BME280;8513;42.662;23.350;2024-03-02T07:24:42;94368.41;;;9.48;74.15
16793;BME280;8513;42.662;23.350;2024-03-02T07:27:11;94369.25;;;9.49;74.33
16793;BME280;8513;42.662;23.350;2024-03-02T07:29:37;94367.91;;;9.45;74.00
16793;BME280;8513;42.662;23.350;2024-03-02T07:32:06;94375.66;;;9.55;74.18
16793;BME280;8513;42.662;23.350;2024-03-02T07:34:32;94373.34;;;9.52;74.38
16793;BME280;8513;42.662;23.350;2024-03-02T07:36:57;94374.81;;;9.54;75.01
16793;BME280;8513;42.662;23.350;2024-03-02T07:39:23;94377.13;;;9.49;74.91
16793;BME280;8513;42.662;23.350;2024-03-02T07:41:48;94380.22;;;9.53;74.88
16793;BME280;8513;42.662;23.350;2024-03-02T07:44:14;94378.59;;;9.52;75.25
16793;BME280;8513;42.662;23.350;2024-03-02T07:46:43;94375.31;;;9.58;75.15
16793;BME280;8513;42.662;23.350;2024-03-02T07:49:09;94390.25;;;9.57;74.99
16793;BME280;8513;42.662;23.350;2024-03-02T07:51:35;94374.81;;;9.54;74.70
16793;BME280;8513;42.662;23.350;2024-03-02T07:54:01;94382.69;;;9.54;75.25
16793;BME280;8513;42.662;23.350;2024-03-02T07:56:27;94381.06;;;9.53;75.30
16793;BME280;8513;42.662;23.350;2024-03-02T07:58:52;94387.97;;;9.62;75.76
16793;BME280;8513;42.662;23.350;2024-03-02T08:01:18;94385.66;;;9.59;75.17
16793;BME280;8513;42.662;23.350;2024-03-02T08:03:43;94391.75;;;9.68;75.08
16793;BME280;8513;42.662;23.350;2024-03-02T08:06:16;94394.53;;;9.66;74.95
16793;BME280;8513;42.662;23.350;2024-03-02T08:08:42;94397.63;;;9.70;75.05
16793;BME280;8513;42.662;23.350;2024-03-02T08:11:07;94402.25;;;9.68;75.06
16793;BME280;8513;42.662;23.350;2024-03-02T08:13:33;94397.84;;;9.77;75.13
16793;BME280;8513;42.662;23.350;2024-03-02T08:15:58;94396.34;;;9.82;74.49
16793;BME280;8513;42.662;23.350;2024-03-02T08:18:24;94397.63;;;9.70;74.44
16793;BME280;8513;42.662;23.350;2024-03-02T08:20:50;94397.63;;;9.70;74.73
16793;BME280;8513;42.662;23.350;2024-03-02T08:23:15;94400.78;;;9.65;74.58
16793;BME280;8513;42.662;23.350;2024-03-02T08:25:41;94399.44;;;9.69;75.12
16793;BME280;8513;42.662;23.350;2024-03-02T08:28:07;94402.59;;;9.81;74.98
16793;BME280;8513;42.662;23.350;2024-03-02T08:30:32;94396.81;;;9.69;75.34
16793;BME280;8513;42.662;23.350;2024-03-02T08:32:58;94398.81;;;9.76;75.10
16793;BME280;8513;42.662;23.350;2024-03-02T08:35:23;94392.59;;;9.77;75.05
16793;BME280;8513;42.662;23.350;2024-03-02T08:37:49;94387.00;;;9.80;75.34
16793;BME280;8513;42.662;23.350;2024-03-02T08:40:15;94396.56;;;9.97;74.58
16793;BME280;8513;42.662;23.350;2024-03-02T08:42:40;94401.28;;;10.02;74.59
16793;BME280;8513;42.662;23.350;2024-03-02T08:45:07;94387.69;;;10.06;74.24
16793;BME280;8513;42.662;23.350;2024-03-02T08:47:32;94389.97;;;10.26;74.44
16793;BME280;8513;42.662;23.350;2024-03-02T08:49:59;94393.47;;;10.34;74.00
16793;BME280;8513;42.662;23.350;2024-03-02T08:52:25;94398.19;;;10.39;74.10
16793;BME280;8513;42.662;23.350;2024-03-02T08:54:50;94388.84;;;10.45;73.95
16793;BME280;8513;42.662;23.350;2024-03-02T08:57:16;94394.28;;;10.43;73.23
16793;BME280;8513;42.662;23.350;2024-03-02T08:59:41;94392.28;;;10.53;72.91
16793;BME280;8513;42.662;23.350;2024-03-02T09:02:07;94392.63;;;10.58;72.88
16793;BME280;8513;42.662;23.350;2024-03-02T09:04:32;94393.06;;;10.70;72.46
16793;BME280;8513;42.662;23.350;2024-03-02T09:06:58;94390.91;;;10.74;71.56
16793;BME280;8513;42.662;23.350;2024-03-02T09:09:23;94397.59;;;10.93;71.25
16793;BME280;8513;42.662;23.350;2024-03-02T09:11:49;94388.72;;;11.02;71.24
16793;BME280;8513;42.662;23.350;2024-03-02T09:14:15;94391.34;;;11.02;69.55
16793;BME280;8513;42.662;23.350;2024-03-02T09:16:40;94404.63;;;11.09;69.90
16793;BME280;8513;42.662;23.350;2024-03-02T09:19:06;94405.63;;;11.08;71.00
16793;BME280;8513;42.662;23.350;2024-03-02T09:21:31;94407.94;;;11.02;70.71
16793;BME280;8513;42.662;23.350;2024-03-02T09:23:56;94405.66;;;10.99;70.67
16793;BME280;8513;42.662;23.350;2024-03-02T09:26:22;94410.41;;;10.96;70.61
16793;BME280;8513;42.662;23.350;2024-03-02T09:28:50;94408.34;;;10.83;69.93
16793;BME280;8513;42.662;23.350;2024-03-02T09:31:15;94409.81;;;10.86;70.54
16793;BME280;8513;42.662;23.350;2024-03-02T09:33:41;94415.69;;;10.96;69.94
16793;BME280;8513;42.662;23.350;2024-03-02T09:36:16;94412.75;;;10.91;69.95
16793;BME280;8513;42.662;23.350;2024-03-02T09:38:42;94416.88;;;10.93;68.57
16793;BME280;8513;42.662;23.350;2024-03-02T09:41:07;94402.41;;;10.81;68.57
16793;BME280;8513;42.662;23.350;2024-03-02T09:43:33;94412.78;;;10.82;70.16
16793;BME280;8513;42.662;23.350;2024-03-02T09:45:58;94415.22;;;10.84;71.31
16793;BME280;8513;42.662;23.350;2024-03-02T09:48:24;94412.94;;;10.81;71.56
16793;BME280;8513;42.662;23.350;2024-03-02T09:50:49;94410.81;;;10.76;70.94
16793;BME280;8513;42.662;23.350;2024-03-02T09:53:15;94412.63;;;10.76;72.06
16793;BME280;8513;42.662;23.350;2024-03-02T09:55:45;94412.47;;;10.77;71.58
16793;BME280;8513;42.662;23.350;2024-03-02T09:58:11;94415.56;;;10.81;71.91
16793;BME280;8513;42.662;23.350;2024-03-02T10:00:37;94420.00;;;10.80;72.03
16793;BME280;8513;42.662;23.350;2024-03-02T10:03:03;94415.22;;;10.84;71.97
16793;BME280;8513;42.662;23.350;2024-03-02T10:05:30;94417.84;;;10.84;72.10
16793;BME280;8513;42.662;23.350;2024-03-02T10:08:00;94410.59;;;10.94;71.58
16793;BME280;8513;42.662;23.350;2024-03-02T10:10:40;94416.22;;;10.91;71.83
16793;BME280;8513;42.662;23.350;2024-03-02T10:13:08;94410.44;;;10.88;72.66
16793;BME280;8513;42.662;23.350;2024-03-02T10:15:34;94418.19;;;10.81;73.71
16793;BME280;8513;42.662;23.350;2024-03-02T10:18:00;94414.75;;;10.80;73.34
16793;BME280;8513;42.662;23.350;2024-03-02T10:20:26;94416.06;;;10.76;74.00
16793;BME280;8513;42.662;23.350;2024-03-02T10:22:56;94419.00;;;10.81;73.81
16793;BME280;8513;42.662;23.350;2024-03-02T10:25:34;94412.28;;;10.79;73.52
16793;BME280;8513;42.662;23.350;2024-03-02T10:28:00;94418.53;;;10.78;74.00
16793;BME280;8513;42.662;23.350;2024-03-02T10:30:27;94409.00;;;10.69;73.97
16793;BME280;8513;42.662;23.350;2024-03-02T10:32:55;94406.06;;;10.64;73.01
16793;BME280;8513;42.662;23.350;2024-03-02T10:35:22;94407.88;;;10.63;73.03
16793;BME280;8513;42.662;23.350;2024-03-02T10:37:52;94416.88;;;10.77;73.20
16793;BME280;8513;42.662;23.350;2024-03-02T10:40:18;94406.56;;;10.67;74.40
16793;BME280;8513;42.662;23.350;2024-03-02T10:42:46;94416.06;;;10.76;73.93
16793;BME280;8513;42.662;23.350;2024-03-02T10:45:15;94416.09;;;10.52;74.10
16793;BME280;8513;42.662;23.350;2024-03-02T10:47:42;94411.31;;;10.55;73.72
16793;BME280;8513;42.662;23.350;2024-03-02T10:50:08;94403.63;;;10.54;74.04
16793;BME280;8513;42.662;23.350;2024-03-02T10:52:40;94400.47;;;10.50;74.29
16793;BME280;8513;42.662;23.350;2024-03-02T10:55:11;94407.91;;;10.47;74.50
16793;BME280;8513;42.662;23.350;2024-03-02T10:57:53;94403.28;;;10.49;74.06
16793;BME280;8513;42.662;23.350;2024-03-02T11:00:20;94400.16;;;10.62;73.76
16793;BME280;8513;42.662;23.350;2024-03-02T11:02:52;94393.78;;;10.56;74.07
16793;BME280;8513;42.662;23.350;2024-03-02T11:05:28;94401.94;;;10.61;73.98
16793;BME280;8513;42.662;23.350;2024-03-02T11:08:00;94396.69;;;10.61;73.87
16793;BME280;8513;42.662;23.350;2024-03-02T11:10:35;94395.06;;;10.60;74.52
16793;BME280;8513;42.662;23.350;2024-03-02T11:13:05;94391.44;;;10.61;74.41
16793;BME280;8513;42.662;23.350;2024-03-02T11:15:34;94395.38;;;10.65;74.36
16793;BME280;8513;42.662;23.350;2024-03-02T11:18:01;94394.22;;;10.68;74.31
16793;BME280;8513;42.662;23.350;2024-03-02T11:20:29;94387.00;;;10.70;75.10
16793;BME280;8513;42.662;23.350;2024-03-02T11:22:55;94388.63;;;10.71;74.29
16793;BME280;8513;42.662;23.350;2024-03-02T11:25:27;94395.38;;;10.73;74.63
16793;BME280;8513;42.662;23.350;2024-03-02T11:35:25;94390.25;;;10.72;73.40
16793;BME280;8513;42.662;23.350;2024-03-02T11:37:51;94386.34;;;10.68;73.92
16793;BME280;8513;42.662;23.350;2024-03-02T11:40:22;94393.06;;;10.70;73.90
16793;BME280;8513;42.662;23.350;2024-03-02T11:42:47;94380.78;;;10.54;74.31
16793;BME280;8513;42.662;23.350;2024-03-02T11:45:16;94381.09;;;10.59;73.72
16793;BME280;8513;42.662;23.350;2024-03-02T11:47:46;94386.19;;;10.61;74.10
16793;BME280;8513;42.662;23.350;2024-03-02T11:50:15;94392.28;;;10.62;73.81
16793;BME280;8513;42.662;23.350;2024-03-02T11:52:41;94389.50;;;10.47;74.07
16793;BME280;8513;42.662;23.350;2024-03-02T11:55:08;94391.31;;;10.46;73.99
16793;BME280;8513;42.662;23.350;2024-03-02T11:57:35;94390.97;;;10.41;73.72
16793;BME280;8513;42.662;23.350;2024-03-02T12:00:00;94385.91;;;10.48;73.97
16793;BME280;8513;42.662;23.350;2024-03-02T12:02:28;94392.31;;;10.45;73.49
16793;BME280;8513;42.662;23.350;2024-03-02T12:04:54;94389.50;;;10.47;73.56
16793;BME280;8513;42.662;23.350;2024-03-02T12:07:21;94388.50;;;10.56;73.60
16793;BME280;8513;42.662;23.350;2024-03-02T12:09:47;94387.03;;;10.62;73.48
16793;BME280;8513;42.662;23.350;2024-03-02T12:12:12;94389.66;;;10.53;73.80
16793;BME280;8513;42.662;23.350;2024-03-02T12:14:50;94387.84;;;10.54;73.99
16793;BME280;8513;42.662;23.350;2024-03-02T12:17:16;94386.50;;;10.58;73.79
16793;BME280;8513;42.662;23.350;2024-03-02T12:19:42;94391.94;;;10.65;73.73
16793;BME280;8513;42.662;23.350;2024-03-02T12:22:07;94382.09;;;10.58;73.37
16793;BME280;8513;42.662;23.350;2024-03-02T12:24:33;94387.03;;;10.53;73.68
16793;BME280;8513;42.662;23.350;2024-03-02T12:26:58;94398.66;;;10.67;72.76
16793;BME280;8513;42.662;23.350;2024-03-02T12:29:24;94392.09;;;10.63;72.47
16793;BME280;8513;42.662;23.350;2024-03-02T12:31:53;94391.91;;;10.73;71.64
16793;BME280;8513;42.662;23.350;2024-03-02T12:34:19;94391.16;;;10.48;71.81
16793;BME280;8513;42.662;23.350;2024-03-02T12:36:46;94384.41;;;10.53;71.70
16793;BME280;8513;42.662;23.350;2024-03-02T12:39:15;94389.00;;;10.59;72.06
16793;BME280;8513;42.662;23.350;2024-03-02T12:41:41;94387.03;;;10.62;72.04
16793;BME280;8513;42.662;23.350;2024-03-02T12:44:06;94385.19;;;10.62;72.20
16793;BME280;8513;42.662;23.350;2024-03-02T12:46:32;94386.00;;;10.71;72.19
16793;BME280;8513;42.662;23.350;2024-03-02T12:49:10;94384.38;;;10.70;71.58
16793;BME280;8513;42.662;23.350;2024-03-02T12:51:37;94389.97;;;10.67;71.43
16793;BME280;8513;42.662;23.350;2024-03-02T12:54:03;94387.28;;;10.83;71.27
16793;BME280;8513;42.662;23.350;2024-03-02T12:56:30;94385.44;;;11.00;69.37
16793;BME280;8513;42.662;23.350;2024-03-02T12:58:56;94387.63;;;10.72;70.21
16793;BME280;8513;42.662;23.350;2024-03-02T13:01:21;94394.22;;;10.76;70.53
16793;BME280;8513;42.662;23.350;2024-03-02T13:03:50;94392.25;;;10.78;70.49
16793;BME280;8513;42.662;23.350;2024-03-02T13:06:23;94394.06;;;10.69;70.89
16793;BME280;8513;42.662;23.350;2024-03-02T13:08:49;94393.88;;;10.71;70.79
16793;BME280;8513;42.662;23.350;2024-03-02T13:11:16;94392.25;;;10.78;70.14
16793;BME280;8513;42.662;23.350;2024-03-02T13:13:41;94389.59;;;10.86;70.33